Time;durP1;ratioP1;P1;durP2;ratioP2;P2;SDS_P1;SDS_P2;PMS_P1;PMS_P2;Temp;Humidity;BMP_temperature;BMP_pressure;BME280_temperature;BME280_humidity;BME280_pressure;Samples;Min_cycle;Max_cycle;Signal;HPM_P1;HPM_P2
2022/06/02 00:02:57;;;;;;;4.35;3.08;;;;;;;7.38;100.00;96775.09;5011730;28;20068;-72
2022/06/02 00:05:33;;;;;;;5.10;3.25;;;;;;;7.17;100.00;96770.22;5015457;28;20044;-71
2022/06/02 00:08:07;;;;;;;5.40;3.25;;;;;;;7.07;100.00;96776.00;5016663;28;20064;-72
2022/06/02 00:11:01;;;;;;;7.32;4.22;;;;;;;7.04;100.00;96770.31;5015020;28;20533;-72
2022/06/02 00:13:41;;;;;;;8.38;5.35;;;;;;;6.95;100.00;96770.59;5011983;28;20433;-72
2022/06/02 00:16:13;;;;;;;8.45;4.82;;;;;;;6.95;100.00;96772.44;5015029;28;20048;-72
2022/06/02 00:18:48;;;;;;;11.13;5.20;;;;;;;7.02;100.00;96770.56;5012805;28;20065;-72
2022/06/02 00:21:38;;;;;;;8.68;4.57;;;;;;;6.98;100.00;96774.66;5012974;28;20497;-72
2022/06/02 00:24:17;;;;;;;6.90;4.20;;;;;;;7.10;100.00;96778.25;5013792;28;20034;-72
2022/06/02 00:26:59;;;;;;;6.75;4.32;;;;;;;7.10;100.00;96772.13;5018432;28;20041;-71
2022/06/02 00:29:44;;;;;;;6.25;4.15;;;;;;;7.16;100.00;96782.72;5028644;28;20080;-72
2022/06/02 00:32:23;;;;;;;6.15;3.92;;;;;;;7.19;100.00;96790.25;5011733;28;20521;-72
2022/06/02 00:34:59;;;;;;;5.40;3.63;;;;;;;7.18;100.00;96785.97;5014625;28;20045;-71
2022/06/02 00:37:50;;;;;;;5.07;3.58;;;;;;;7.13;100.00;96788.44;5016756;28;20574;-72
2022/06/02 00:40:16;;;;;;;6.47;3.97;;;;;;;7.14;100.00;96790.06;5013074;28;20126;-73
2022/06/02 00:43:10;;;;;;;7.75;3.78;;;;;;;7.14;100.00;96787.41;5015339;28;20112;-73
2022/06/02 00:45:41;;;;;;;6.40;4.00;;;;;;;7.12;100.00;96796.66;4993559;28;20061;-72
2022/06/02 00:48:27;;;;;;;7.00;4.07;;;;;;;7.10;100.00;96790.75;5011097;28;20570;-72
2022/06/02 00:51:02;;;;;;;5.93;4.10;;;;;;;7.08;100.00;96808.75;5012234;28;20056;-72
2022/06/02 01:00:04;;;;;;;8.05;4.05;;;;;;;6.92;100.00;96810.13;5014331;28;20373;-72
2022/06/02 01:02:45;;;;;;;5.60;3.97;;;;;;;6.78;100.00;96816.59;5016184;28;20263;-72
2022/06/02 01:05:11;;;;;;;7.30;4.50;;;;;;;6.71;100.00;96806.00;5013606;28;20126;-72
2022/06/02 01:07:49;;;;;;;7.00;4.65;;;;;;;6.56;100.00;96813.47;5026910;28;20463;-72
2022/06/02 01:10:35;;;;;;;7.72;4.50;;;;;;;6.42;100.00;96815.38;5013080;28;20069;-72
2022/06/02 01:13:18;;;;;;;7.82;4.90;;;;;;;6.32;100.00;96810.53;5016567;28;20033;-72
2022/06/02 01:15:56;;;;;;;7.43;4.95;;;;;;;6.28;100.00;96811.16;5015538;28;20038;-72
2022/06/02 01:18:31;;;;;;;6.43;4.93;;;;;;;6.33;100.00;96816.66;5011022;28;20049;-72
2022/06/02 01:21:18;;;;;;;9.90;5.00;;;;;;;6.32;100.00;96820.34;5010946;28;20042;-73
2022/06/02 01:24:07;;;;;;;6.40;4.50;;;;;;;6.34;100.00;96816.44;4972796;28;20050;-73
2022/06/02 01:27:11;;;;;;;8.73;4.57;;;;;;;6.42;100.00;96818.03;4977101;28;20504;-72
2022/06/02 01:29:42;;;;;;;7.43;4.78;;;;;;;6.49;100.00;96821.47;4974582;28;20050;-72
2022/06/02 01:32:15;;;;;;;9.52;4.80;;;;;;;6.52;100.00;96820.22;4971928;28;21014;-72
2022/06/02 01:35:13;;;;;;;6.53;4.70;;;;;;;6.51;100.00;96822.06;4975814;28;20049;-73
2022/06/02 01:37:46;;;;;;;6.95;4.10;;;;;;;6.53;100.00;96827.97;4955172;28;20055;-72
2022/06/02 01:40:44;;;;;;;10.60;4.80;;;;;;;6.50;100.00;96825.75;4974019;28;20601;-72
2022/06/02 01:43:16;;;;;;;7.10;4.20;;;;;;;6.42;100.00;96829.47;4973702;28;20053;-72
2022/06/02 01:46:20;;;;;;;6.63;4.72;;;;;;;6.29;100.00;96818.91;4975177;28;20034;-72
2022/06/02 01:49:15;;;;;;;7.50;4.55;;;;;;;6.36;100.00;96829.50;4916855;29;20043;-72
2022/06/02 01:52:11;;;;;;;6.97;4.90;;;;;;;6.32;100.00;96830.97;4918599;29;20448;-72
2022/06/02 01:54:51;;;;;;;6.60;4.93;;;;;;;6.31;100.00;96834.66;4968158;28;20543;-72
2022/06/02 01:57:44;;;;;;;8.00;5.30;;;;;;;6.30;100.00;96830.34;4974907;28;20046;-72
2022/06/02 02:00:13;;;;;;;8.48;4.90;;;;;;;6.29;100.00;96836.69;4975432;28;20034;-72
2022/06/02 02:02:54;;;;;;;7.07;5.40;;;;;;;6.31;100.00;96827.50;4978109;28;20394;-72
2022/06/02 02:05:26;;;;;;;7.47;5.32;;;;;;;6.32;100.00;96837.09;4975072;28;20049;-72
2022/06/02 02:08:00;;;;;;;7.35;5.45;;;;;;;6.35;100.00;96839.31;4976507;28;20050;-72
2022/06/02 02:10:40;;;;;;;10.15;5.82;;;;;;;6.36;100.00;96832.16;4980585;28;20084;-73
2022/06/02 02:13:20;;;;;;;8.98;5.80;;;;;;;6.29;100.00;96834.84;4978655;28;20051;-72
2022/06/02 02:15:55;;;;;;;9.73;5.30;;;;;;;6.16;100.00;96828.81;4975967;28;20050;-72
2022/06/02 02:19:01;;;;;;;7.50;5.82;;;;;;;6.00;100.00;96835.41;4974382;28;20557;-72
2022/06/02 02:21:37;;;;;;;9.98;6.07;;;;;;;5.96;100.00;96832.34;4982232;28;20054;-71
2022/06/02 02:24:39;;;;;;;8.57;6.00;;;;;;;5.96;100.00;96840.31;5031755;28;20148;-73
2022/06/02 02:27:07;;;;;;;;;;;;;;;6.02;100.00;96838.66;5016681;28;20041;-73
2022/06/02 02:29:48;;;;;;;10.25;5.40;;;;;;;5.90;100.00;96838.47;5019083;28;19916;-73
2022/06/02 02:32:39;;;;;;;10.82;5.90;;;;;;;5.82;100.00;96842.16;5016434;28;20123;-71
2022/06/02 02:35:39;;;;;;;7.50;5.72;;;;;;;5.88;100.00;96849.28;4991169;28;20062;-72
2022/06/02 02:38:12;;;;;;;10.20;6.40;;;;;;;5.83;100.00;96843.78;5014062;28;20052;-72
2022/06/02 02:40:45;;;;;;;8.77;6.30;;;;;;;5.75;100.00;96851.16;5015523;28;20071;-73
2022/06/02 02:43:30;;;;;;;11.02;6.45;;;;;;;5.67;100.00;96851.38;5017099;28;20049;-72
2022/06/02 02:46:10;;;;;;;9.55;6.53;;;;;;;5.72;100.00;96857.72;5019994;28;20033;-72
2022/06/02 02:48:59;;;;;;;9.35;6.88;;;;;;;5.72;100.00;96857.72;5018117;28;20045;-72
2022/06/02 02:51:59;;;;;;;10.85;7.68;;;;;;;5.62;100.00;96857.34;5015086;28;20433;-71
2022/06/02 02:54:33;;;;;;;11.25;7.38;;;;;;;5.55;100.00;96853.88;5016658;28;20111;-72
2022/06/02 02:57:13;;;;;;;11.98;6.97;;;;;;;5.49;100.00;96857.34;5016303;28;20246;-71
2022/06/02 02:59:57;;;;;;;10.63;6.83;;;;;;;5.39;100.00;96851.66;5016118;28;20041;-72
2022/06/02 03:02:50;;;;;;;11.98;7.68;;;;;;;5.38;100.00;96853.50;5015576;28;20311;-72
2022/06/02 03:05:26;;;;;;;12.52;7.70;;;;;;;5.37;100.00;96857.19;5015957;28;20541;-72
2022/06/02 03:08:00;;;;;;;10.02;7.55;;;;;;;5.46;100.00;96865.75;5016546;28;20107;-71
2022/06/02 03:10:35;;;;;;;10.55;6.90;;;;;;;5.52;100.00;96864.88;5016779;28;20087;-72
2022/06/02 03:13:24;;;;;;;13.02;7.15;;;;;;;5.53;100.00;96867.38;5016706;28;20052;-72
2022/06/02 03:16:06;;;;;;;12.05;7.35;;;;;;;5.58;100.00;96869.38;5017172;28;20045;-73
2022/06/02 03:18:51;;;;;;;11.02;7.28;;;;;;;5.54;100.00;96868.19;5016065;28;20038;-72
2022/06/02 03:21:27;;;;;;;11.07;7.35;;;;;;;5.59;100.00;96869.16;5015470;28;20065;-71
2022/06/02 03:24:31;;;;;;;13.00;7.32;;;;;;;5.62;100.00;96886.53;5017449;28;20605;-72
2022/06/02 03:27:13;;;;;;;14.65;8.35;;;;;;;5.64;100.00;96881.84;5015079;28;20053;-72
2022/06/02 03:29:55;;;;;;;10.52;7.53;;;;;;;5.55;100.00;96878.59;5014554;28;20090;-72
2022/06/02 03:32:46;;;;;;;16.90;8.00;;;;;;;5.51;100.00;96876.53;5003259;28;20508;-71
2022/06/02 03:35:21;;;;;;;14.05;8.57;;;;;;;5.58;100.00;96883.47;5015959;28;20152;-71
2022/06/02 03:37:55;;;;;;;10.55;7.65;;;;;;;5.59;100.00;96882.44;5016545;28;20072;-72
2022/06/02 03:40:26;;;;;;;12.63;7.82;;;;;;;5.62;100.00;96885.72;5016728;28;20104;-71
2022/06/02 03:43:11;;;;;;;11.88;8.05;;;;;;;5.62;100.00;96880.41;5015324;28;20046;-72
2022/06/02 03:45:37;;;;;;;12.30;8.68;;;;;;;5.63;100.00;96882.06;5020135;28;20119;-72
2022/06/02 03:48:14;;;;;;;16.25;8.60;;;;;;;5.69;100.00;96891.84;5013738;28;20773;-74
2022/06/02 03:50:45;;;;;;;11.20;7.80;;;;;;;5.68;100.00;96891.03;5016957;28;20049;-72
2022/06/02 03:53:52;;;;;;;11.90;7.90;;;;;;;5.72;100.00;96894.91;5015427;28;20634;-71
2022/06/02 03:57:06;;;;;;;13.98;8.20;;;;;;;5.64;100.00;96903.06;5013209;28;20080;-71
2022/06/02 03:59:55;;;;;;;11.98;7.72;;;;;;;5.51;100.00;96908.41;5002488;28;20092;-72
2022/06/02 04:02:31;;;;;;;11.20;7.93;;;;;;;5.45;100.00;96906.59;5013420;28;20126;-72
2022/06/02 04:05:03;;;;;;;12.52;8.57;;;;;;;5.53;100.00;96915.16;5016035;28;20124;-72
2022/06/02 04:07:42;;;;;;;14.10;8.57;;;;;;;5.64;100.00;96911.03;5017750;28;20044;-73
2022/06/02 04:10:18;;;;;;;13.43;8.30;;;;;;;5.69;100.00;96911.25;5015266;28;20042;-72
2022/06/02 04:15:41;;;;;;;17.15;8.70;;;;;;;5.69;100.00;96913.91;5015541;28;20072;-73
2022/06/02 04:18:11;;;;;;;12.93;8.77;;;;;;;5.68;100.00;96920.25;5015056;28;20048;-72
2022/06/02 04:20:53;;;;;;;14.65;8.90;;;;;;;5.75;100.00;96923.69;5014232;28;20045;-74
2022/06/02 04:23:21;;;;;;;15.10;8.80;;;;;;;5.74;100.00;96929.19;5011751;28;20143;-72
2022/06/02 04:26:15;;;;;;;14.82;9.48;;;;;;;5.72;100.00;96913.47;5006532;28;20080;-74
2022/06/02 04:28:52;;;;;;;13.18;9.20;;;;;;;5.90;100.00;96925.28;5028965;28;20464;-74
2022/06/02 04:31:30;;;;;;;15.48;8.93;;;;;;;5.96;100.00;96940.44;5013855;28;20061;-73
2022/06/02 04:34:09;;;;;;;14.10;9.32;;;;;;;6.02;100.00;96939.63;5013133;28;20120;-74
2022/06/02 04:36:48;;;;;;;15.63;9.82;;;;;;;6.09;100.00;96940.44;5014565;28;20119;-73
2022/06/02 04:39:39;;;;;;;14.50;9.75;;;;;;;6.18;100.00;96943.66;5012791;28;20518;-73
2022/06/02 04:42:24;;;;;;;14.73;8.55;;;;;;;6.18;100.00;96944.47;5015448;28;20404;-73
2022/06/02 04:45:05;;;;;;;11.23;8.25;;;;;;;6.23;100.00;96946.53;5013932;28;20084;-73
2022/06/02 04:47:53;;;;;;;14.02;9.15;;;;;;;6.26;100.00;96944.25;5016321;28;20943;-73
2022/06/02 04:50:44;;;;;;;14.77;9.13;;;;;;;6.35;100.00;96953.63;5014289;28;20322;-73
2022/06/02 04:53:27;;;;;;;13.63;9.43;;;;;;;6.48;100.00;96950.13;5011569;28;20064;-74
2022/06/02 04:55:58;;;;;;;15.98;9.18;;;;;;;6.61;100.00;96950.03;5017414;28;20057;-73
2022/06/02 04:58:32;;;;;;;15.27;9.43;;;;;;;6.73;100.00;96947.53;5011750;28;20456;-74
2022/06/02 05:01:02;;;;;;;13.63;8.98;;;;;;;6.81;100.00;96952.63;5014181;28;20057;-74
2022/06/02 05:03:44;;;;;;;13.32;9.02;;;;;;;6.85;100.00;96948.53;5013094;28;20037;-74
2022/06/02 05:06:22;;;;;;;11.98;8.70;;;;;;;6.78;100.00;96945.06;5015109;28;20511;-74
2022/06/02 05:09:15;;;;;;;14.90;9.38;;;;;;;6.86;100.00;96947.50;5012341;28;20041;-74
2022/06/02 05:12:01;;;;;;;14.35;9.13;;;;;;;6.96;100.00;96941.69;5011364;28;20045;-74
2022/06/02 05:14:39;;;;;;;12.00;8.60;;;;;;;7.11;100.00;96938.75;5011835;28;20121;-73
2022/06/02 05:17:38;;;;;;;14.85;9.65;;;;;;;7.22;100.00;96948.69;5010018;28;20049;-74
2022/06/02 05:20:25;;;;;;;12.50;8.52;;;;;;;7.32;100.00;96949.06;5013993;28;20047;-74
2022/06/02 05:23:32;;;;;;;14.43;9.10;;;;;;;7.45;100.00;96950.78;5014997;28;20064;-73
2022/06/02 05:26:16;;;;;;;14.23;8.95;;;;;;;7.51;100.00;96950.75;4993886;28;20419;-73
2022/06/02 05:29:19;;;;;;;15.93;8.80;;;;;;;7.69;100.00;96949.97;5027974;28;20042;-73
2022/06/02 05:32:00;;;;;;;12.77;9.23;;;;;;;7.82;100.00;96949.03;5029394;28;20056;-74
2022/06/02 05:34:52;;;;;;;15.82;10.00;;;;;;;7.95;100.00;96959.59;5016081;28;20084;-74
2022/06/02 05:37:21;;;;;;;19.40;10.15;;;;;;;8.05;100.00;96946.56;4981239;28;20093;-74
2022/06/02 05:40:02;;;;;;;18.60;10.07;;;;;;;8.15;100.00;96951.38;5016150;28;20088;-74
2022/06/02 05:42:27;;;;;;;13.48;9.27;;;;;;;8.24;100.00;96952.72;5024517;28;20045;-73
2022/06/02 05:45:20;;;;;;;13.02;9.18;;;;;;;8.32;100.00;96959.63;5016956;28;20392;-73
2022/06/02 05:48:21;;;;;;;14.68;9.38;;;;;;;8.42;100.00;96953.81;5019985;28;20041;-74
2022/06/02 05:51:24;;;;;;;15.18;9.52;;;;;;;8.51;100.00;96963.16;4994984;28;20056;-74
2022/06/02 05:54:10;;;;;;;13.77;8.95;;;;;;;8.47;100.00;96967.28;5022129;28;20580;-75
2022/06/02 05:57:00;;;;;;;15.68;9.43;;;;;;;8.56;100.00;96969.44;4980864;28;20279;-74
2022/06/02 05:59:54;;;;;;;14.93;9.18;;;;;;;8.65;100.00;96968.09;5022750;28;20037;-74
2022/06/02 06:02:25;;;;;;;14.98;9.90;;;;;;;8.75;100.00;96972.09;5017148;28;20522;-73
2022/06/02 06:04:59;;;;;;;13.23;9.02;;;;;;;8.86;100.00;96979.34;5021867;28;20374;-74
2022/06/02 06:07:25;;;;;;;16.83;10.43;;;;;;;8.91;100.00;96984.81;5018635;28;20080;-74
2022/06/02 06:10:17;;;;;;;15.93;9.52;;;;;;;9.00;100.00;96991.47;5020782;28;20386;-74
2022/06/02 06:13:00;;;;;;;14.48;10.52;;;;;;;9.07;100.00;96992.19;5019421;28;20412;-73
2022/06/02 06:16:01;;;;;;;14.48;10.02;;;;;;;9.14;100.00;96987.59;5015627;28;20617;-73
2022/06/02 06:19:06;;;;;;;14.93;9.50;;;;;;;9.34;100.00;96994.50;5007154;28;20156;-73
2022/06/02 06:21:50;;;;;;;13.93;9.73;;;;;;;9.49;100.00;96993.06;5020442;28;20045;-74
2022/06/02 06:24:33;;;;;;;13.98;8.93;;;;;;;9.58;100.00;97001.56;5020753;28;20045;-74
2022/06/02 06:27:28;;;;;;;13.40;9.60;;;;;;;9.60;100.00;97007.47;5021131;28;20040;-74
2022/06/02 06:30:07;;;;;;;14.32;9.55;;;;;;;9.49;100.00;97000.22;5021127;28;20041;-73
2022/06/02 06:32:38;;;;;;;11.80;8.35;;;;;;;9.37;100.00;97002.88;5022113;28;20137;-73
2022/06/02 06:35:13;;;;;;;12.70;8.85;;;;;;;9.41;100.00;96997.88;5020421;28;20126;-73
2022/06/02 06:37:47;;;;;;;14.77;9.10;;;;;;;9.56;100.00;97003.63;5022170;28;20139;-74
2022/06/02 06:40:49;;;;;;;17.95;9.52;;;;;;;9.70;100.00;97010.41;5018858;28;20049;-73
2022/06/02 06:43:41;;;;;;;14.15;9.15;;;;;;;9.86;100.00;97008.09;5017222;28;20354;-74
2022/06/02 06:46:24;;;;;;;14.95;9.32;;;;;;;9.96;100.00;97017.22;5018758;28;20053;-74
2022/06/02 06:48:57;;;;;;;14.40;9.95;;;;;;;10.08;100.00;97019.06;5023512;28;20045;-74
2022/06/02 06:51:31;;;;;;;14.32;10.35;;;;;;;10.22;100.00;97024.00;5021669;28;20045;-74
2022/06/02 06:54:23;;;;;;;15.95;11.38;;;;;;;10.32;100.00;97026.06;5018382;28;20046;-73
2022/06/02 06:56:57;;;;;;;14.55;9.38;;;;;;;10.39;100.00;97032.13;5018771;28;20049;-75
2022/06/02 06:59:44;;;;;;;15.70;9.88;;;;;;;10.42;100.00;97033.50;5016234;28;20037;-73
2022/06/02 07:02:46;;;;;;;21.67;9.77;;;;;;;10.50;100.00;97025.13;5016192;28;20519;-74
2022/06/02 07:05:42;;;;;;;13.80;8.88;;;;;;;10.55;100.00;97031.41;5015772;28;20120;-74
2022/06/02 07:08:10;;;;;;;15.35;9.07;;;;;;;10.62;100.00;97025.94;5016720;28;20475;-73
2022/06/02 07:11:00;;;;;;;15.68;8.52;;;;;;;10.63;100.00;97027.56;5019112;28;20485;-74
2022/06/02 07:13:36;;;;;;;13.48;8.50;;;;;;;10.68;100.00;97026.88;5016050;28;20424;-75
2022/06/02 07:16:12;;;;;;;14.63;9.32;;;;;;;10.70;100.00;97028.25;5020320;28;20041;-74
2022/06/02 07:19:07;;;;;;;13.50;8.82;;;;;;;10.68;100.00;97024.22;5018109;28;20527;-73
2022/06/02 07:21:51;;;;;;;15.13;8.93;;;;;;;10.81;100.00;97029.28;5018672;28;20060;-74
2022/06/02 07:24:48;;;;;;;13.48;8.68;;;;;;;10.69;100.00;97020.47;5018644;28;20616;-73
2022/06/02 07:27:41;;;;;;;13.63;8.52;;;;;;;10.75;100.00;97020.34;5018501;28;20049;-73
2022/06/02 07:30:07;;;;;;;15.15;9.15;;;;;;;10.92;100.00;97024.97;5013684;28;20052;-74
2022/06/02 07:32:55;;;;;;;15.52;9.05;;;;;;;11.06;100.00;97020.97;4998022;28;20053;-74
2022/06/02 07:35:52;;;;;;;14.05;8.88;;;;;;;11.14;100.00;97013.38;5018275;28;20076;-74
2022/06/02 07:38:55;;;;;;;13.80;8.95;;;;;;;11.23;100.00;97004.97;5013498;28;20439;-74
2022/06/02 07:41:38;;;;;;;14.18;8.48;;;;;;;11.37;100.00;97003.63;5015089;28;20037;-74
2022/06/02 07:44:45;;;;;;;14.15;9.05;;;;;;;11.46;100.00;97002.19;5013325;28;20045;-73
2022/06/02 07:47:21;;;;;;;12.18;8.13;;;;;;;11.50;100.00;97003.31;5010539;28;20178;-75
2022/06/02 07:50:04;;;;;;;13.88;7.20;;;;;;;11.64;100.00;96993.91;5017931;28;20544;-73
2022/06/02 07:52:55;;;;;;;11.20;6.78;;;;;;;11.69;100.00;96999.38;5016305;28;20037;-73
2022/06/02 07:55:45;;;;;;;11.20;7.35;;;;;;;11.66;100.00;96993.66;5014598;28;20390;-75
2022/06/02 07:58:33;;;;;;;10.95;7.32;;;;;;;11.71;100.00;96994.56;5017821;28;20459;-75
2022/06/02 08:01:23;;;;;;;11.88;7.40;;;;;;;11.88;100.00;96986.56;5012065;28;20062;-74
2022/06/02 08:03:58;;;;;;;10.25;6.30;;;;;;;12.07;100.00;96984.47;5013808;28;20055;-73
2022/06/02 08:06:30;;;;;;;11.25;6.18;;;;;;;12.16;100.00;96982.19;5018480;28;20037;-74
2022/06/02 08:09:20;;;;;;;13.15;7.43;;;;;;;12.20;100.00;96988.66;5013319;28;20044;-74
2022/06/02 08:11:56;;;;;;;10.18;6.55;;;;;;;12.32;100.00;96984.03;5013577;28;20061;-74
2022/06/02 08:14:39;;;;;;;10.13;5.28;;;;;;;12.57;100.00;96996.19;5014581;28;20041;-74
2022/06/02 08:17:22;;;;;;;9.77;5.43;;;;;;;12.60;100.00;96998.34;5012915;28;20422;-74
2022/06/02 08:20:23;;;;;;;9.60;5.50;;;;;;;12.71;100.00;96997.44;5013671;28;20045;-74
2022/06/02 08:23:05;;;;;;;11.30;6.05;;;;;;;12.75;100.00;97002.03;5015962;28;20104;-74
2022/06/02 08:26:18;;;;;;;11.43;6.00;;;;;;;12.75;100.00;96994.00;5016765;28;20120;-74
2022/06/02 08:28:49;;;;;;;8.65;5.20;;;;;;;12.92;100.00;97002.03;5007390;28;20103;-74
2022/06/02 08:31:34;;;;;;;;;;;;;;;13.00;100.00;97004.25;5015654;28;20053;-74
2022/06/02 08:34:17;;;;;;;8.85;5.18;;;;;;;12.91;100.00;96999.56;5014216;28;20498;-74
2022/06/02 08:37:32;;;;;;;12.00;5.03;;;;;;;12.95;100.00;97014.94;5016406;28;20061;-74
2022/06/02 08:40:16;;;;;;;8.00;4.90;;;;;;;13.40;100.00;97013.88;5002834;28;20069;-75
2022/06/02 08:43:33;;;;;;;8.63;4.13;;;;;;;13.44;100.00;97014.97;5016809;28;20094;-75
2022/06/02 08:46:10;;;;;;;8.50;4.80;;;;;;;13.09;100.00;97010.00;4996617;28;20107;-74
2022/06/02 08:48:57;;;;;;;9.63;5.70;;;;;;;12.86;100.00;97013.75;5012795;28;20076;-73
2022/06/02 08:52:06;;;;;;;8.13;4.70;;;;;;;12.57;100.00;97017.66;5018135;28;20057;-72
2022/06/02 08:54:56;;;;;;;7.18;4.72;;;;;;;12.69;100.00;97021.88;5013586;28;20048;-73
2022/06/02 08:57:41;;;;;;;8.73;4.83;;;;;;;12.86;100.00;97027.19;5017038;28;20582;-72
2022/06/02 09:00:22;;;;;;;5.63;3.70;;;;;;;13.25;100.00;97032.53;5011617;28;20350;-73
2022/06/02 09:03:06;;;;;;;;;;;;;;;13.60;100.00;97032.09;5018753;28;20067;-72
2022/06/02 09:06:02;;;;;;;7.15;4.20;;;;;;;13.70;100.00;97034.09;5015166;28;19921;-72
2022/06/02 09:08:51;;;;;;;8.30;4.72;;;;;;;13.54;100.00;97036.63;5012051;28;20049;-74
2022/06/02 09:11:32;;;;;;;7.38;4.53;;;;;;;13.58;100.00;97031.53;5016901;28;20216;-74
2022/06/02 09:13:57;;;;;;;6.40;4.20;;;;;;;13.47;100.00;97033.31;5014361;28;20040;-72
2022/06/02 09:16:48;;;;;;;7.13;4.30;;;;;;;13.61;100.00;97037.19;5019486;28;20049;-73
2022/06/02 09:19:25;;;;;;;7.63;4.83;;;;;;;13.91;97.71;97031.31;5029889;28;20511;-72
2022/06/02 09:21:53;;;;;;;5.68;3.85;;;;;;;14.13;98.67;97027.72;5013618;28;20053;-72
2022/06/02 09:24:28;;;;;;;6.70;3.33;;;;;;;14.40;97.53;97028.47;5012829;28;20492;-72
2022/06/02 09:27:25;;;;;;;7.68;3.28;;;;;;;14.56;91.82;97026.72;5014391;28;20049;-74
2022/06/02 09:30:09;;;;;;;7.72;3.40;;;;;;;14.85;100.00;97029.84;5011672;28;20260;-73
2022/06/02 09:36:24;;;;;;;6.70;3.85;;;;;;;15.33;91.45;97014.44;5013316;28;20476;-72
2022/06/02 09:39:40;;;;;;;6.47;3.30;;;;;;;15.52;85.73;97017.44;5008552;28;20500;-72
2022/06/02 09:42:39;;;;;;;4.97;3.20;;;;;;;15.67;100.00;97019.41;4980983;28;20073;-72
2022/06/02 09:45:13;;;;;;;5.70;3.15;;;;;;;15.84;88.24;97019.94;5012973;28;20042;-71
2022/06/02 09:48:03;;;;;;;6.40;3.33;;;;;;;15.72;79.87;97008.59;5014246;28;20716;-71
2022/06/02 09:50:53;;;;;;;5.10;2.55;;;;;;;15.43;85.77;97013.66;5014066;28;20045;-72
2022/06/02 09:53:37;;;;;;;5.43;3.03;;;;;;;15.52;97.71;97018.25;5015503;28;20132;-72
2022/06/02 09:56:23;;;;;;;5.85;3.20;;;;;;;15.29;85.24;97014.13;5013860;28;20037;-72
2022/06/02 09:59:20;;;;;;;5.88;3.10;;;;;;;15.66;84.35;97013.19;5013298;28;20037;-72
2022/06/02 10:01:58;;;;;;;5.13;3.10;;;;;;;15.98;79.10;97017.53;5028953;28;20470;-72
2022/06/02 10:04:49;;;;;;;4.95;3.15;;;;;;;16.51;88.68;97012.66;5013998;28;20408;-73
2022/06/02 10:07:18;;;;;;;;;;;;;;;16.83;88.35;97018.56;5014470;28;20144;-72
2022/06/02 10:10:15;;;;;;;5.22;3.03;;;;;;;16.55;81.81;97006.41;5011678;28;19971;-73
2022/06/02 10:13:06;;;;;;;5.70;2.70;;;;;;;16.66;81.65;97001.81;5017373;28;20126;-71
2022/06/02 10:15:46;;;;;;;4.72;2.55;;;;;;;16.66;77.00;97001.81;5012041;28;20188;-72
2022/06/02 10:18:24;;;;;;;5.82;3.05;;;;;;;17.32;79.88;96996.19;5012263;28;20033;-72
2022/06/02 10:21:27;;;;;;;4.35;2.80;;;;;;;17.82;73.43;96999.72;5016382;28;20073;-71
2022/06/02 10:24:10;;;;;;;5.60;2.92;;;;;;;17.60;68.99;96985.75;5013314;28;20037;-71
2022/06/02 10:27:12;;;;;;;4.45;2.30;;;;;;;18.03;75.23;97000.34;5017089;28;20045;-71
2022/06/02 10:30:12;;;;;;;4.80;2.83;;;;;;;18.25;64.39;96997.19;5018091;28;20041;-71
2022/06/02 10:32:59;;;;;;;5.32;2.50;;;;;;;18.49;72.74;96998.06;5031348;28;20053;-72
2022/06/02 10:35:30;;;;;;;5.43;2.67;;;;;;;19.04;62.40;96998.56;5017248;28;20060;-72
2022/06/02 10:37:56;;;;;;;5.03;2.80;;;;;;;19.37;69.91;96998.72;5015881;28;20106;-72
2022/06/02 10:40:50;;;;;;;3.78;2.33;;;;;;;19.71;57.35;96995.84;5018518;28;20263;-72
2022/06/02 10:43:24;;;;;;;3.95;2.60;;;;;;;19.75;57.67;96997.66;4319921;28;10000581;-72
2022/06/02 10:46:06;;;;;;;6.28;2.80;;;;;;;19.23;56.20;96986.97;5015479;28;20354;-71
2022/06/02 10:48:50;;;;;;;6.25;2.65;;;;;;;19.18;61.83;96983.22;5013040;28;20575;-71
2022/06/02 10:51:46;;;;;;;4.10;2.53;;;;;;;18.98;60.65;96996.22;5013890;28;20049;-71
2022/06/02 10:54:49;;;;;;;6.07;3.20;;;;;;;18.40;79.14;96988.13;5014362;28;20624;-71
2022/06/02 10:57:33;;;;;;;4.53;2.33;;;;;;;18.47;80.79;96978.56;5013186;28;20041;-72
2022/06/02 11:00:20;;;;;;;4.90;3.10;;;;;;;18.95;58.54;96978.63;5014345;28;20318;-72
2022/06/02 11:03:14;;;;;;;5.45;2.90;;;;;;;19.70;57.34;96980.66;5016541;28;20401;-71
2022/06/02 11:06:17;;;;;;;3.92;2.47;;;;;;;19.21;57.52;96974.50;5014360;28;20053;-72
2022/06/02 11:09:08;;;;;;;6.50;3.92;;;;;;;19.00;61.61;96986.72;5015729;28;20056;-71
2022/06/02 11:12:05;;;;;;;4.60;2.67;;;;;;;18.95;59.67;96975.91;5016150;28;20064;-71
2022/06/02 11:15:08;;;;;;;6.38;3.20;;;;;;;19.89;49.55;96972.47;5014133;28;20127;-71
2022/06/02 11:17:48;;;;;;;4.93;2.63;;;;;;;20.68;52.43;96970.59;5018596;28;20033;-71
2022/06/02 11:20:51;;;;;;;4.23;2.67;;;;;;;21.24;43.13;96964.03;5014547;28;20076;-71
2022/06/02 11:23:45;;;;;;;4.72;2.83;;;;;;;21.93;41.82;96964.69;5014513;28;20053;-71
2022/06/02 11:26:45;;;;;;;4.35;2.45;;;;;;;22.77;40.41;96965.84;5016716;28;20048;-71
2022/06/02 11:29:32;;;;;;;4.30;2.38;;;;;;;23.83;36.51;96961.97;5016163;28;20511;-72
2022/06/02 11:32:18;;;;;;;4.43;2.40;;;;;;;25.67;34.83;96950.84;5010939;28;20329;-71
2022/06/02 11:35:12;;;;;;;4.10;2.58;;;;;;;28.09;31.53;96951.81;5015981;28;20476;-73
2022/06/02 11:38:05;;;;;;;3.60;2.20;;;;;;;29.14;30.73;96939.28;5012246;28;20041;-72
2022/06/02 11:40:42;;;;;;;4.22;2.22;;;;;;;28.92;28.39;96939.94;5015211;28;20045;-71
2022/06/02 11:43:12;;;;;;;4.80;2.30;;;;;;;31.30;25.80;96941.22;5013670;28;20552;-72
2022/06/02 11:46:05;;;;;;;4.63;2.35;;;;;;;31.58;23.64;96931.75;5014018;28;20037;-73
2022/06/02 11:48:44;;;;;;;6.70;3.22;;;;;;;30.24;27.02;96927.13;5008009;28;20317;-73
2022/06/02 11:51:35;;;;;;;3.70;2.40;;;;;;;30.85;26.13;96928.25;5015371;28;20350;-72
2022/06/02 11:54:17;;;;;;;4.95;2.40;;;;;;;33.21;22.81;96921.66;5013718;28;20405;-72
2022/06/02 11:57:20;;;;;;;4.45;2.13;;;;;;;34.21;21.80;96921.44;5013241;28;20041;-71
2022/06/02 12:00:23;;;;;;;3.88;2.15;;;;;;;34.95;21.40;96925.59;5012469;28;20116;-70
2022/06/02 12:03:11;;;;;;;5.53;2.28;;;;;;;36.09;21.16;96915.03;5014597;28;20038;-72
2022/06/02 12:06:18;;;;;;;5.88;2.63;;;;;;;36.67;19.06;96916.34;4970085;28;20056;-71
2022/06/02 12:09:11;;;;;;;6.57;2.00;;;;;;;34.61;21.11;96917.59;5018844;28;20077;-71
2022/06/02 12:11:55;;;;;;;3.53;2.13;;;;;;;34.30;23.72;96914.31;5016984;28;20048;-71
2022/06/02 12:14:59;;;;;;;5.22;2.38;;;;;;;33.16;23.14;96922.03;5014316;28;20044;-71
2022/06/02 12:18:06;;;;;;;3.20;2.05;;;;;;;33.96;24.48;96926.91;5015580;28;20049;-72
2022/06/02 12:20:37;;;;;;;4.28;2.13;;;;;;;34.47;20.08;96923.13;5017546;28;20088;-71
2022/06/02 12:23:21;;;;;;;4.95;2.60;;;;;;;32.56;19.89;96921.50;5012384;28;20140;-72
2022/06/02 12:26:02;;;;;;;4.10;2.25;;;;;;;33.46;20.14;96924.66;5016402;28;20494;-71
2022/06/02 12:28:30;;;;;;;4.50;2.20;;;;;;;35.29;20.24;96917.63;5013763;28;20135;-73
2022/06/02 12:31:15;;;;;;;6.03;2.47;;;;;;;33.14;20.61;96915.28;5014505;28;20065;-72
2022/06/02 12:34:11;;;;;;;3.35;1.88;;;;;;;35.25;19.92;96911.25;5012969;28;20123;-72
2022/06/02 12:37:18;;;;;;;3.70;1.88;;;;;;;37.38;17.01;96908.63;5030851;28;20049;-73
2022/06/02 12:39:55;;;;;;;5.00;2.00;;;;;;;38.15;17.72;96900.59;5001134;28;20095;-71
2022/06/02 12:42:30;;;;;;;3.88;1.98;;;;;;;34.51;18.92;96910.03;5021001;28;20068;-72
2022/06/02 12:45:30;;;;;;;3.92;2.38;;;;;;;32.55;20.49;96917.94;5015066;28;20385;-71
2022/06/02 12:48:28;;;;;;;3.53;2.30;;;;;;;32.96;19.52;96915.16;5013968;28;20045;-72
2022/06/02 12:51:41;;;;;;;5.03;2.00;;;;;;;31.91;19.85;96903.38;5021547;28;20051;-73
2022/06/02 12:54:50;;;;;;;3.67;2.10;;;;;;;32.78;19.46;96901.13;5014193;28;20053;-72
2022/06/02 12:57:19;;;;;;;3.73;2.30;;;;;;;31.49;20.48;96911.88;4939988;28;20066;-72
2022/06/02 13:00:22;;;;;;;3.50;2.00;;;;;;;33.92;21.32;96899.13;4939032;28;20050;-71
2022/06/02 13:03:25;;;;;;;4.55;2.22;;;;;;;34.57;19.07;96903.72;4993712;28;20085;-72
2022/06/02 13:06:40;;;;;;;5.32;2.40;;;;;;;33.01;19.69;96900.94;5016261;28;20393;-72
2022/06/02 13:09:30;;;;;;;5.35;1.90;;;;;;;32.74;20.33;96914.13;5032813;28;20040;-72